Página principal
METAR-TAF:

METAR-TAF

Aeroportos :

Aeroporto de Namibe

Namibe, Angola

latitude: 15-15-40S, longitude: 12-08-50E, altura: 64 m

METAR: em falta

Hora: 00:47 (23:47 UTC)

Previsão

O boletim foi feito há 47 minutos, às 23:00 UTC
Previsão válida de 09 às 00 UTC a 09 às 12 UTC
Vento 2 kt com direcção variável
Visibilidade 10 km ou mais
Poucas nuvensa uma altura de 2000 ft

TAF: FNMO 082300Z 0900/0912 VRB02KT 9999 FEW020

Observações e previsões do tempo de mais de 4000 aeroportos (mensagens METAR e TAF).

As estações disponíveis são os pontos amarelos e vermelhos sobre o mapa.

Mova o rato sobre o mapa para ver o nome da estação.

Depois clique no ponto para visualizar as observações e previsões meteorológicas.

Para alterar o mapa : clique nos botões verdes com uma cruz preta para aumentar o zoom; no botão verde com uma pitada de zoom; ou nas setas verdes para mapas adjacentes.


METAR-TAF: